sensor_id;sensor_type;location;lat;lon;timestamp;P1;durP1;ratioP1;P2;durP2;ratioP2
33716;SDS011;20046;50.746;7.072;2023-11-21T00:01:54;19.02;;;8.48;;
33716;SDS011;20046;50.746;7.072;2023-11-21T00:04:20;15.38;;;7.95;;
33716;SDS011;20046;50.746;7.072;2023-11-21T00:06:46;18.45;;;7.85;;
33716;SDS011;20046;50.746;7.072;2023-11-21T00:09:12;22.88;;;9.05;;
33716;SDS011;20046;50.746;7.072;2023-11-21T00:11:40;20.00;;;8.60;;
33716;SDS011;20046;50.746;7.072;2023-11-21T00:14:06;19.13;;;8.75;;
33716;SDS011;20046;50.746;7.072;2023-11-21T00:16:33;18.10;;;8.45;;
33716;SDS011;20046;50.746;7.072;2023-11-21T00:18:59;20.10;;;10.13;;
33716;SDS011;20046;50.746;7.072;2023-11-21T00:21:24;23.02;;;9.88;;
33716;SDS011;20046;50.746;7.072;2023-11-21T00:23:50;18.90;;;9.75;;
33716;SDS011;20046;50.746;7.072;2023-11-21T00:26:16;15.80;;;9.52;;
33716;SDS011;20046;50.746;7.072;2023-11-21T00:28:42;20.98;;;9.48;;
33716;SDS011;20046;50.746;7.072;2023-11-21T00:31:07;19.65;;;9.25;;
33716;SDS011;20046;50.746;7.072;2023-11-21T00:33:33;20.55;;;9.45;;
33716;SDS011;20046;50.746;7.072;2023-11-21T00:35:58;20.73;;;9.38;;
33716;SDS011;20046;50.746;7.072;2023-11-21T00:38:25;22.33;;;9.88;;
33716;SDS011;20046;50.746;7.072;2023-11-21T00:40:52;18.48;;;10.13;;
33716;SDS011;20046;50.746;7.072;2023-11-21T00:43:21;17.45;;;11.02;;
33716;SDS011;20046;50.746;7.072;2023-11-21T00:45:49;25.80;;;10.52;;
33716;SDS011;20046;50.746;7.072;2023-11-21T00:48:16;25.48;;;11.15;;
33716;SDS011;20046;50.746;7.072;2023-11-21T00:50:42;22.38;;;11.32;;
33716;SDS011;20046;50.746;7.072;2023-11-21T00:53:08;24.90;;;12.07;;
33716;SDS011;20046;50.746;7.072;2023-11-21T00:55:34;20.88;;;12.43;;
33716;SDS011;20046;50.746;7.072;2023-11-21T00:58:00;24.13;;;12.25;;
33716;SDS011;20046;50.746;7.072;2023-11-21T01:00:29;22.80;;;11.75;;
33716;SDS011;20046;50.746;7.072;2023-11-21T01:02:54;22.65;;;13.05;;
33716;SDS011;20046;50.746;7.072;2023-11-21T01:05:20;25.85;;;12.93;;
33716;SDS011;20046;50.746;7.072;2023-11-21T01:07:46;27.13;;;14.45;;
33716;SDS011;20046;50.746;7.072;2023-11-21T01:10:11;24.70;;;14.07;;
33716;SDS011;20046;50.746;7.072;2023-11-21T01:12:37;27.10;;;13.95;;
33716;SDS011;20046;50.746;7.072;2023-11-21T01:15:04;34.80;;;15.68;;
33716;SDS011;20046;50.746;7.072;2023-11-21T01:17:34;32.33;;;15.68;;
33716;SDS011;20046;50.746;7.072;2023-11-21T01:20:00;34.42;;;16.50;;
33716;SDS011;20046;50.746;7.072;2023-11-21T01:22:26;32.92;;;16.13;;
33716;SDS011;20046;50.746;7.072;2023-11-21T01:24:53;34.00;;;16.67;;
33716;SDS011;20046;50.746;7.072;2023-11-21T01:27:18;26.73;;;15.55;;
33716;SDS011;20046;50.746;7.072;2023-11-21T01:29:44;37.75;;;16.92;;
33716;SDS011;20046;50.746;7.072;2023-11-21T01:32:10;32.05;;;17.67;;
33716;SDS011;20046;50.746;7.072;2023-11-21T01:34:36;37.50;;;16.88;;
33716;SDS011;20046;50.746;7.072;2023-11-21T01:37:02;33.55;;;17.52;;
33716;SDS011;20046;50.746;7.072;2023-11-21T01:39:29;35.45;;;17.80;;
33716;SDS011;20046;50.746;7.072;2023-11-21T01:41:56;34.00;;;17.17;;
33716;SDS011;20046;50.746;7.072;2023-11-21T01:44:23;30.05;;;15.80;;
33716;SDS011;20046;50.746;7.072;2023-11-21T01:46:49;23.85;;;14.10;;
33716;SDS011;20046;50.746;7.072;2023-11-21T01:49:16;32.58;;;16.83;;
33716;SDS011;20046;50.746;7.072;2023-11-21T01:51:43;30.42;;;14.02;;
33716;SDS011;20046;50.746;7.072;2023-11-21T01:54:11;32.83;;;14.18;;
33716;SDS011;20046;50.746;7.072;2023-11-21T01:56:37;33.65;;;14.20;;
33716;SDS011;20046;50.746;7.072;2023-11-21T01:59:04;25.55;;;13.52;;
33716;SDS011;20046;50.746;7.072;2023-11-21T02:01:32;28.35;;;14.50;;
33716;SDS011;20046;50.746;7.072;2023-11-21T02:03:58;26.70;;;14.00;;
33716;SDS011;20046;50.746;7.072;2023-11-21T02:06:23;34.35;;;14.60;;
33716;SDS011;20046;50.746;7.072;2023-11-21T02:08:50;27.50;;;13.40;;
33716;SDS011;20046;50.746;7.072;2023-11-21T02:11:16;25.58;;;13.10;;
33716;SDS011;20046;50.746;7.072;2023-11-21T02:13:44;23.27;;;13.55;;
33716;SDS011;20046;50.746;7.072;2023-11-21T02:16:10;25.33;;;13.50;;
33716;SDS011;20046;50.746;7.072;2023-11-21T02:18:38;26.67;;;13.65;;
33716;SDS011;20046;50.746;7.072;2023-11-21T02:21:04;28.50;;;12.98;;
33716;SDS011;20046;50.746;7.072;2023-11-21T02:23:30;27.65;;;13.98;;
33716;SDS011;20046;50.746;7.072;2023-11-21T02:25:56;29.33;;;13.73;;
33716;SDS011;20046;50.746;7.072;2023-11-21T02:28:21;25.02;;;13.43;;
33716;SDS011;20046;50.746;7.072;2023-11-21T02:30:51;29.63;;;15.10;;
33716;SDS011;20046;50.746;7.072;2023-11-21T02:33:21;31.13;;;13.98;;
33716;SDS011;20046;50.746;7.072;2023-11-21T02:35:47;25.60;;;14.27;;
33716;SDS011;20046;50.746;7.072;2023-11-21T02:38:12;30.75;;;14.70;;
33716;SDS011;20046;50.746;7.072;2023-11-21T02:40:38;32.42;;;15.23;;
33716;SDS011;20046;50.746;7.072;2023-11-21T02:43:04;36.17;;;15.77;;
33716;SDS011;20046;50.746;7.072;2023-11-21T02:45:31;32.20;;;15.63;;
33716;SDS011;20046;50.746;7.072;2023-11-21T02:47:57;35.40;;;16.73;;
33716;SDS011;20046;50.746;7.072;2023-11-21T02:50:23;35.80;;;16.27;;
33716;SDS011;20046;50.746;7.072;2023-11-21T02:52:48;35.70;;;16.30;;
33716;SDS011;20046;50.746;7.072;2023-11-21T02:55:14;40.22;;;16.45;;
33716;SDS011;20046;50.746;7.072;2023-11-21T02:57:40;32.65;;;16.15;;
33716;SDS011;20046;50.746;7.072;2023-11-21T03:00:06;41.42;;;17.88;;
33716;SDS011;20046;50.746;7.072;2023-11-21T03:02:33;36.50;;;17.63;;
33716;SDS011;20046;50.746;7.072;2023-11-21T03:05:03;35.58;;;16.98;;
33716;SDS011;20046;50.746;7.072;2023-11-21T03:07:30;36.17;;;16.42;;
33716;SDS011;20046;50.746;7.072;2023-11-21T03:09:55;32.70;;;16.65;;
33716;SDS011;20046;50.746;7.072;2023-11-21T03:12:21;37.70;;;18.35;;
33716;SDS011;20046;50.746;7.072;2023-11-21T03:14:46;37.00;;;19.42;;
33716;SDS011;20046;50.746;7.072;2023-11-21T03:17:12;46.53;;;18.25;;
33716;SDS011;20046;50.746;7.072;2023-11-21T03:19:41;46.42;;;22.52;;
33716;SDS011;20046;50.746;7.072;2023-11-21T03:22:06;51.33;;;23.00;;
33716;SDS011;20046;50.746;7.072;2023-11-21T03:24:33;50.38;;;24.38;;
33716;SDS011;20046;50.746;7.072;2023-11-21T03:26:59;49.75;;;26.77;;
33716;SDS011;20046;50.746;7.072;2023-11-21T03:29:25;70.72;;;28.98;;
33716;SDS011;20046;50.746;7.072;2023-11-21T03:31:51;64.15;;;28.55;;
33716;SDS011;20046;50.746;7.072;2023-11-21T03:34:22;70.57;;;31.05;;
33716;SDS011;20046;50.746;7.072;2023-11-21T03:36:49;64.68;;;31.13;;
33716;SDS011;20046;50.746;7.072;2023-11-21T03:39:15;78.57;;;32.58;;
33716;SDS011;20046;50.746;7.072;2023-11-21T03:41:40;92.57;;;31.90;;
33716;SDS011;20046;50.746;7.072;2023-11-21T03:44:06;73.43;;;32.38;;
33716;SDS011;20046;50.746;7.072;2023-11-21T03:46:32;69.25;;;31.35;;
33716;SDS011;20046;50.746;7.072;2023-11-21T03:48:57;70.88;;;33.50;;
33716;SDS011;20046;50.746;7.072;2023-11-21T03:51:23;74.18;;;33.35;;
33716;SDS011;20046;50.746;7.072;2023-11-21T03:53:48;77.55;;;32.92;;
33716;SDS011;20046;50.746;7.072;2023-11-21T03:56:14;74.65;;;32.38;;
33716;SDS011;20046;50.746;7.072;2023-11-21T03:58:39;74.78;;;31.60;;
33716;SDS011;20046;50.746;7.072;2023-11-21T04:01:05;79.53;;;33.00;;
33716;SDS011;20046;50.746;7.072;2023-11-21T04:03:31;80.53;;;33.63;;
33716;SDS011;20046;50.746;7.072;2023-11-21T04:05:56;88.15;;;33.70;;
33716;SDS011;20046;50.746;7.072;2023-11-21T04:08:22;77.18;;;33.95;;
33716;SDS011;20046;50.746;7.072;2023-11-21T04:10:47;80.93;;;33.80;;
33716;SDS011;20046;50.746;7.072;2023-11-21T04:13:13;77.78;;;31.88;;
33716;SDS011;20046;50.746;7.072;2023-11-21T04:15:39;76.57;;;32.83;;
33716;SDS011;20046;50.746;7.072;2023-11-21T04:18:05;81.28;;;34.15;;
33716;SDS011;20046;50.746;7.072;2023-11-21T04:20:30;76.63;;;33.35;;
33716;SDS011;20046;50.746;7.072;2023-11-21T04:22:56;74.15;;;31.40;;
33716;SDS011;20046;50.746;7.072;2023-11-21T04:25:21;82.55;;;33.45;;
33716;SDS011;20046;50.746;7.072;2023-11-21T04:27:48;84.68;;;31.50;;
33716;SDS011;20046;50.746;7.072;2023-11-21T04:30:14;66.38;;;30.40;;
33716;SDS011;20046;50.746;7.072;2023-11-21T04:32:39;70.90;;;30.98;;
33716;SDS011;20046;50.746;7.072;2023-11-21T04:35:05;82.30;;;31.10;;
33716;SDS011;20046;50.746;7.072;2023-11-21T04:37:31;70.38;;;31.13;;
33716;SDS011;20046;50.746;7.072;2023-11-21T04:39:57;73.97;;;30.92;;
33716;SDS011;20046;50.746;7.072;2023-11-21T04:42:22;78.32;;;31.73;;
33716;SDS011;20046;50.746;7.072;2023-11-21T04:44:48;68.18;;;30.60;;
33716;SDS011;20046;50.746;7.072;2023-11-21T04:47:14;79.07;;;30.67;;
33716;SDS011;20046;50.746;7.072;2023-11-21T04:49:43;74.38;;;29.83;;
33716;SDS011;20046;50.746;7.072;2023-11-21T04:52:09;68.55;;;29.73;;
33716;SDS011;20046;50.746;7.072;2023-11-21T04:54:35;71.15;;;30.17;;
33716;SDS011;20046;50.746;7.072;2023-11-21T04:57:01;73.88;;;30.10;;
33716;SDS011;20046;50.746;7.072;2023-11-21T04:59:26;70.10;;;29.52;;
33716;SDS011;20046;50.746;7.072;2023-11-21T05:01:52;65.68;;;28.05;;
33716;SDS011;20046;50.746;7.072;2023-11-21T05:04:19;67.82;;;29.13;;
33716;SDS011;20046;50.746;7.072;2023-11-21T05:06:46;82.38;;;29.45;;
33716;SDS011;20046;50.746;7.072;2023-11-21T05:09:12;85.72;;;31.20;;
33716;SDS011;20046;50.746;7.072;2023-11-21T05:11:38;65.55;;;29.80;;
33716;SDS011;20046;50.746;7.072;2023-11-21T05:14:05;75.90;;;29.90;;
33716;SDS011;20046;50.746;7.072;2023-11-21T05:16:32;74.95;;;29.92;;
33716;SDS011;20046;50.746;7.072;2023-11-21T05:18:58;74.93;;;30.45;;
33716;SDS011;20046;50.746;7.072;2023-11-21T05:21:26;78.18;;;32.50;;
33716;SDS011;20046;50.746;7.072;2023-11-21T05:23:52;79.75;;;30.45;;
33716;SDS011;20046;50.746;7.072;2023-11-21T05:26:17;69.38;;;30.17;;
33716;SDS011;20046;50.746;7.072;2023-11-21T05:28:43;85.90;;;34.22;;
33716;SDS011;20046;50.746;7.072;2023-11-21T05:31:08;99.53;;;40.85;;
33716;SDS011;20046;50.746;7.072;2023-11-21T05:33:35;88.05;;;33.50;;
33716;SDS011;20046;50.746;7.072;2023-11-21T05:36:01;82.75;;;33.28;;
33716;SDS011;20046;50.746;7.072;2023-11-21T05:38:27;81.18;;;33.15;;
33716;SDS011;20046;50.746;7.072;2023-11-21T05:40:53;73.45;;;31.20;;
33716;SDS011;20046;50.746;7.072;2023-11-21T05:43:19;80.05;;;32.17;;
33716;SDS011;20046;50.746;7.072;2023-11-21T05:45:45;80.72;;;30.73;;
33716;SDS011;20046;50.746;7.072;2023-11-21T05:48:10;75.13;;;30.45;;
33716;SDS011;20046;50.746;7.072;2023-11-21T05:50:36;92.35;;;33.28;;
33716;SDS011;20046;50.746;7.072;2023-11-21T05:53:03;83.57;;;32.25;;
33716;SDS011;20046;50.746;7.072;2023-11-21T05:55:29;83.63;;;32.65;;
33716;SDS011;20046;50.746;7.072;2023-11-21T05:57:54;86.65;;;33.58;;
33716;SDS011;20046;50.746;7.072;2023-11-21T06:00:20;88.22;;;33.13;;
33716;SDS011;20046;50.746;7.072;2023-11-21T06:02:50;81.90;;;32.50;;
33716;SDS011;20046;50.746;7.072;2023-11-21T06:05:18;79.20;;;30.30;;
33716;SDS011;20046;50.746;7.072;2023-11-21T06:07:45;87.18;;;32.42;;
33716;SDS011;20046;50.746;7.072;2023-11-21T06:10:11;85.57;;;31.58;;
33716;SDS011;20046;50.746;7.072;2023-11-21T06:12:39;95.05;;;32.67;;
33716;SDS011;20046;50.746;7.072;2023-11-21T06:15:07;90.68;;;32.63;;
33716;SDS011;20046;50.746;7.072;2023-11-21T06:17:34;86.97;;;31.95;;
33716;SDS011;20046;50.746;7.072;2023-11-21T06:20:04;96.95;;;33.80;;
33716;SDS011;20046;50.746;7.072;2023-11-21T06:22:37;93.30;;;32.15;;
33716;SDS011;20046;50.746;7.072;2023-11-21T06:25:04;97.20;;;33.58;;
33716;SDS011;20046;50.746;7.072;2023-11-21T06:27:33;92.90;;;31.58;;
33716;SDS011;20046;50.746;7.072;2023-11-21T06:32:30;89.60;;;31.60;;
33716;SDS011;20046;50.746;7.072;2023-11-21T06:34:56;89.57;;;30.92;;
33716;SDS011;20046;50.746;7.072;2023-11-21T06:37:24;94.72;;;30.88;;
33716;SDS011;20046;50.746;7.072;2023-11-21T06:39:53;96.85;;;31.08;;
33716;SDS011;20046;50.746;7.072;2023-11-21T06:42:19;89.95;;;32.20;;
33716;SDS011;20046;50.746;7.072;2023-11-21T06:44:45;99.07;;;30.27;;
33716;SDS011;20046;50.746;7.072;2023-11-21T06:47:11;98.75;;;34.05;;
33716;SDS011;20046;50.746;7.072;2023-11-21T06:49:37;91.93;;;32.20;;
33716;SDS011;20046;50.746;7.072;2023-11-21T06:52:06;109.88;;;34.47;;
33716;SDS011;20046;50.746;7.072;2023-11-21T06:54:31;89.93;;;31.90;;
33716;SDS011;20046;50.746;7.072;2023-11-21T06:56:57;95.97;;;30.73;;
33716;SDS011;20046;50.746;7.072;2023-11-21T06:59:23;92.78;;;31.52;;
33716;SDS011;20046;50.746;7.072;2023-11-21T07:01:49;90.68;;;31.55;;
33716;SDS011;20046;50.746;7.072;2023-11-21T07:04:15;92.10;;;30.23;;
33716;SDS011;20046;50.746;7.072;2023-11-21T07:06:41;88.70;;;28.65;;
33716;SDS011;20046;50.746;7.072;2023-11-21T07:09:08;96.68;;;29.95;;
33716;SDS011;20046;50.746;7.072;2023-11-21T07:11:34;84.43;;;31.38;;
33716;SDS011;20046;50.746;7.072;2023-11-21T07:14:00;89.28;;;29.85;;
33716;SDS011;20046;50.746;7.072;2023-11-21T07:16:32;82.72;;;30.42;;
33716;SDS011;20046;50.746;7.072;2023-11-21T07:19:03;81.00;;;28.42;;
33716;SDS011;20046;50.746;7.072;2023-11-21T07:21:31;84.93;;;29.38;;
33716;SDS011;20046;50.746;7.072;2023-11-21T07:24:01;88.82;;;29.52;;
33716;SDS011;20046;50.746;7.072;2023-11-21T07:26:27;72.72;;;28.00;;
33716;SDS011;20046;50.746;7.072;2023-11-21T07:28:53;72.80;;;26.38;;
33716;SDS011;20046;50.746;7.072;2023-11-21T07:31:19;77.07;;;28.40;;
33716;SDS011;20046;50.746;7.072;2023-11-21T07:33:45;91.88;;;28.70;;
33716;SDS011;20046;50.746;7.072;2023-11-21T07:36:14;92.30;;;29.25;;
33716;SDS011;20046;50.746;7.072;2023-11-21T07:38:41;77.93;;;28.30;;
33716;SDS011;20046;50.746;7.072;2023-11-21T07:41:07;73.53;;;27.40;;
33716;SDS011;20046;50.746;7.072;2023-11-21T07:43:34;87.93;;;28.85;;
33716;SDS011;20046;50.746;7.072;2023-11-21T07:46:01;81.88;;;27.10;;
33716;SDS011;20046;50.746;7.072;2023-11-21T07:48:30;69.55;;;27.50;;
33716;SDS011;20046;50.746;7.072;2023-11-21T07:50:56;76.07;;;27.00;;
33716;SDS011;20046;50.746;7.072;2023-11-21T07:53:26;78.60;;;27.88;;
33716;SDS011;20046;50.746;7.072;2023-11-21T07:55:53;86.80;;;28.88;;
33716;SDS011;20046;50.746;7.072;2023-11-21T07:58:19;89.53;;;29.77;;
33716;SDS011;20046;50.746;7.072;2023-11-21T08:00:45;83.18;;;29.65;;
33716;SDS011;20046;50.746;7.072;2023-11-21T08:03:12;82.97;;;28.85;;
33716;SDS011;20046;50.746;7.072;2023-11-21T08:05:38;68.95;;;25.98;;
33716;SDS011;20046;50.746;7.072;2023-11-21T08:08:04;75.22;;;27.35;;
33716;SDS011;20046;50.746;7.072;2023-11-21T08:10:30;76.65;;;28.45;;
33716;SDS011;20046;50.746;7.072;2023-11-21T08:12:55;83.00;;;29.65;;
33716;SDS011;20046;50.746;7.072;2023-11-21T08:15:21;85.38;;;30.00;;
33716;SDS011;20046;50.746;7.072;2023-11-21T08:17:47;81.40;;;29.40;;
33716;SDS011;20046;50.746;7.072;2023-11-21T08:20:13;93.70;;;31.33;;
33716;SDS011;20046;50.746;7.072;2023-11-21T08:22:44;81.53;;;29.10;;
33716;SDS011;20046;50.746;7.072;2023-11-21T08:25:10;83.90;;;31.02;;
33716;SDS011;20046;50.746;7.072;2023-11-21T08:27:36;82.40;;;29.00;;
33716;SDS011;20046;50.746;7.072;2023-11-21T08:30:02;79.40;;;27.63;;
33716;SDS011;20046;50.746;7.072;2023-11-21T08:32:29;78.55;;;29.00;;
33716;SDS011;20046;50.746;7.072;2023-11-21T08:34:57;72.28;;;27.23;;
33716;SDS011;20046;50.746;7.072;2023-11-21T08:37:23;71.72;;;29.05;;
33716;SDS011;20046;50.746;7.072;2023-11-21T08:39:49;73.75;;;28.98;;
33716;SDS011;20046;50.746;7.072;2023-11-21T08:42:14;73.00;;;26.92;;
33716;SDS011;20046;50.746;7.072;2023-11-21T08:44:40;65.68;;;26.73;;
33716;SDS011;20046;50.746;7.072;2023-11-21T08:47:06;71.90;;;26.13;;
33716;SDS011;20046;50.746;7.072;2023-11-21T08:49:32;65.95;;;26.05;;
33716;SDS011;20046;50.746;7.072;2023-11-21T08:51:58;77.72;;;28.90;;
33716;SDS011;20046;50.746;7.072;2023-11-21T08:54:25;69.25;;;27.25;;
33716;SDS011;20046;50.746;7.072;2023-11-21T08:56:51;63.05;;;25.83;;
33716;SDS011;20046;50.746;7.072;2023-11-21T08:59:18;69.72;;;26.05;;
33716;SDS011;20046;50.746;7.072;2023-11-21T09:01:45;68.68;;;24.42;;
33716;SDS011;20046;50.746;7.072;2023-11-21T09:04:11;69.30;;;27.40;;
33716;SDS011;20046;50.746;7.072;2023-11-21T09:06:37;61.38;;;23.88;;
33716;SDS011;20046;50.746;7.072;2023-11-21T09:09:03;69.28;;;25.42;;
33716;SDS011;20046;50.746;7.072;2023-11-21T09:11:30;72.32;;;29.52;;
33716;SDS011;20046;50.746;7.072;2023-11-21T09:13:58;68.65;;;27.63;;
33716;SDS011;20046;50.746;7.072;2023-11-21T09:16:28;67.75;;;28.23;;
33716;SDS011;20046;50.746;7.072;2023-11-21T09:18:54;73.40;;;27.33;;
33716;SDS011;20046;50.746;7.072;2023-11-21T09:21:19;69.85;;;28.73;;
33716;SDS011;20046;50.746;7.072;2023-11-21T09:23:45;68.20;;;29.20;;
33716;SDS011;20046;50.746;7.072;2023-11-21T09:26:11;73.18;;;30.42;;
33716;SDS011;20046;50.746;7.072;2023-11-21T09:28:37;69.70;;;28.17;;
33716;SDS011;20046;50.746;7.072;2023-11-21T09:31:03;69.80;;;29.15;;
33716;SDS011;20046;50.746;7.072;2023-11-21T09:33:29;73.68;;;30.73;;
33716;SDS011;20046;50.746;7.072;2023-11-21T09:35:56;76.93;;;31.90;;
33716;SDS011;20046;50.746;7.072;2023-11-21T09:38:22;75.40;;;30.73;;
33716;SDS011;20046;50.746;7.072;2023-11-21T09:40:47;81.43;;;30.42;;
33716;SDS011;20046;50.746;7.072;2023-11-21T09:43:16;73.95;;;30.75;;
33716;SDS011;20046;50.746;7.072;2023-11-21T09:45:44;80.72;;;32.65;;
33716;SDS011;20046;50.746;7.072;2023-11-21T09:48:12;74.45;;;31.73;;
33716;SDS011;20046;50.746;7.072;2023-11-21T09:50:38;80.68;;;33.67;;
33716;SDS011;20046;50.746;7.072;2023-11-21T09:55:39;71.38;;;32.00;;
33716;SDS011;20046;50.746;7.072;2023-11-21T09:58:09;73.40;;;31.38;;
33716;SDS011;20046;50.746;7.072;2023-11-21T10:00:38;70.38;;;32.60;;
33716;SDS011;20046;50.746;7.072;2023-11-21T10:03:07;73.10;;;30.27;;
33716;SDS011;20046;50.746;7.072;2023-11-21T10:05:34;75.20;;;29.48;;
33716;SDS011;20046;50.746;7.072;2023-11-21T10:08:00;74.03;;;32.40;;
33716;SDS011;20046;50.746;7.072;2023-11-21T10:10:26;80.22;;;32.40;;
33716;SDS011;20046;50.746;7.072;2023-11-21T10:12:55;76.13;;;31.92;;
33716;SDS011;20046;50.746;7.072;2023-11-21T10:15:22;63.55;;;30.63;;
33716;SDS011;20046;50.746;7.072;2023-11-21T10:17:50;72.85;;;32.35;;
33716;SDS011;20046;50.746;7.072;2023-11-21T10:20:18;69.13;;;31.92;;
33716;SDS011;20046;50.746;7.072;2023-11-21T10:22:44;67.13;;;29.90;;
33716;SDS011;20046;50.746;7.072;2023-11-21T10:25:11;73.53;;;30.27;;
33716;SDS011;20046;50.746;7.072;2023-11-21T10:27:39;73.45;;;32.55;;
33716;SDS011;20046;50.746;7.072;2023-11-21T10:30:06;72.55;;;31.00;;
33716;SDS011;20046;50.746;7.072;2023-11-21T10:32:40;75.78;;;31.80;;
33716;SDS011;20046;50.746;7.072;2023-11-21T10:35:06;74.82;;;31.73;;
33716;SDS011;20046;50.746;7.072;2023-11-21T10:37:38;73.00;;;32.13;;
33716;SDS011;20046;50.746;7.072;2023-11-21T10:40:08;74.60;;;31.23;;
33716;SDS011;20046;50.746;7.072;2023-11-21T10:42:38;70.40;;;30.87;;
33716;SDS011;20046;50.746;7.072;2023-11-21T10:45:04;76.60;;;31.95;;
33716;SDS011;20046;50.746;7.072;2023-11-21T10:47:37;67.90;;;31.10;;
33716;SDS011;20046;50.746;7.072;2023-11-21T10:50:04;72.13;;;31.83;;
33716;SDS011;20046;50.746;7.072;2023-11-21T10:52:30;77.60;;;32.13;;
33716;SDS011;20046;50.746;7.072;2023-11-21T10:54:56;72.63;;;31.48;;
33716;SDS011;20046;50.746;7.072;2023-11-21T10:57:24;86.55;;;33.03;;
33716;SDS011;20046;50.746;7.072;2023-11-21T10:59:50;69.63;;;30.88;;
33716;SDS011;20046;50.746;7.072;2023-11-21T11:02:22;75.35;;;32.33;;
33716;SDS011;20046;50.746;7.072;2023-11-21T11:04:59;78.55;;;29.67;;
33716;SDS011;20046;50.746;7.072;2023-11-21T11:07:26;69.45;;;29.73;;
33716;SDS011;20046;50.746;7.072;2023-11-21T11:09:55;73.63;;;29.50;;
33716;SDS011;20046;50.746;7.072;2023-11-21T11:12:23;77.57;;;30.00;;
33716;SDS011;20046;50.746;7.072;2023-11-21T11:14:49;73.78;;;31.40;;
33716;SDS011;20046;50.746;7.072;2023-11-21T11:17:16;74.63;;;33.83;;
33716;SDS011;20046;50.746;7.072;2023-11-21T11:19:45;75.80;;;32.83;;
33716;SDS011;20046;50.746;7.072;2023-11-21T11:22:16;69.88;;;30.15;;
33716;SDS011;20046;50.746;7.072;2023-11-21T11:35:52;63.25;;;28.63;;
33716;SDS011;20046;50.746;7.072;2023-11-21T11:38:47;78.00;;;32.20;;
33716;SDS011;20046;50.746;7.072;2023-11-21T11:41:23;84.70;;;31.88;;
33716;SDS011;20046;50.746;7.072;2023-11-21T11:43:50;83.95;;;33.85;;
33716;SDS011;20046;50.746;7.072;2023-11-21T11:46:16;80.30;;;35.22;;
33716;SDS011;20046;50.746;7.072;2023-11-21T11:48:42;85.75;;;36.15;;
33716;SDS011;20046;50.746;7.072;2023-11-21T11:51:11;81.55;;;36.47;;
33716;SDS011;20046;50.746;7.072;2023-11-21T11:53:40;83.75;;;36.67;;
33716;SDS011;20046;50.746;7.072;2023-11-21T11:56:19;71.47;;;32.78;;
33716;SDS011;20046;50.746;7.072;2023-11-21T11:58:59;80.45;;;34.20;;
33716;SDS011;20046;50.746;7.072;2023-11-21T12:01:28;75.85;;;32.85;;
33716;SDS011;20046;50.746;7.072;2023-11-21T12:07:04;63.65;;;29.10;;
33716;SDS011;20046;50.746;7.072;2023-11-21T12:09:31;63.28;;;28.00;;
33716;SDS011;20046;50.746;7.072;2023-11-21T12:11:56;61.25;;;30.17;;
33716;SDS011;20046;50.746;7.072;2023-11-21T12:14:22;59.80;;;27.55;;
33716;SDS011;20046;50.746;7.072;2023-11-21T12:16:48;59.10;;;28.17;;
33716;SDS011;20046;50.746;7.072;2023-11-21T12:19:14;64.97;;;27.77;;
33716;SDS011;20046;50.746;7.072;2023-11-21T12:21:40;66.65;;;27.73;;
33716;SDS011;20046;50.746;7.072;2023-11-21T12:24:06;53.38;;;25.52;;
33716;SDS011;20046;50.746;7.072;2023-11-21T12:26:34;56.10;;;27.35;;
33716;SDS011;20046;50.746;7.072;2023-11-21T12:29:01;54.80;;;25.90;;
33716;SDS011;20046;50.746;7.072;2023-11-21T12:31:29;57.95;;;23.90;;
33716;SDS011;20046;50.746;7.072;2023-11-21T12:33:55;52.78;;;23.83;;
33716;SDS011;20046;50.746;7.072;2023-11-21T12:36:21;54.45;;;24.88;;
33716;SDS011;20046;50.746;7.072;2023-11-21T12:38:47;52.38;;;25.17;;
33716;SDS011;20046;50.746;7.072;2023-11-21T12:41:12;56.15;;;22.40;;
33716;SDS011;20046;50.746;7.072;2023-11-21T12:43:40;51.35;;;23.48;;
33716;SDS011;20046;50.746;7.072;2023-11-21T12:46:06;53.03;;;23.77;;
33716;SDS011;20046;50.746;7.072;2023-11-21T12:48:34;53.35;;;23.98;;
33716;SDS011;20046;50.746;7.072;2023-11-21T12:51:04;54.10;;;23.70;;
33716;SDS011;20046;50.746;7.072;2023-11-21T12:53:31;48.95;;;24.00;;
33716;SDS011;20046;50.746;7.072;2023-11-21T12:56:06;54.25;;;23.63;;
33716;SDS011;20046;50.746;7.072;2023-11-21T12:58:34;51.75;;;23.40;;
33716;SDS011;20046;50.746;7.072;2023-11-21T13:01:07;47.60;;;24.60;;
33716;SDS011;20046;50.746;7.072;2023-11-21T13:03:39;51.42;;;24.17;;
33716;SDS011;20046;50.746;7.072;2023-11-21T13:06:06;54.40;;;24.73;;
33716;SDS011;20046;50.746;7.072;2023-11-21T13:08:35;53.65;;;23.15;;
33716;SDS011;20046;50.746;7.072;2023-11-21T13:11:04;55.20;;;23.98;;
33716;SDS011;20046;50.746;7.072;2023-11-21T13:13:31;52.33;;;23.50;;
33716;SDS011;20046;50.746;7.072;2023-11-21T13:15:58;55.58;;;23.58;;
33716;SDS011;20046;50.746;7.072;2023-11-21T13:18:26;57.63;;;23.52;;
33716;SDS011;20046;50.746;7.072;2023-11-21T13:20:56;49.25;;;24.25;;
33716;SDS011;20046;50.746;7.072;2023-11-21T13:23:41;54.50;;;22.75;;
33716;SDS011;20046;50.746;7.072;2023-11-21T13:26:07;66.32;;;25.10;;
33716;SDS011;20046;50.746;7.072;2023-11-21T13:28:34;53.97;;;23.75;;
33716;SDS011;20046;50.746;7.072;2023-11-21T13:31:01;49.97;;;24.13;;
33716;SDS011;20046;50.746;7.072;2023-11-21T13:33:46;53.42;;;22.30;;
33716;SDS011;20046;50.746;7.072;2023-11-21T13:36:20;54.28;;;22.80;;
33716;SDS011;20046;50.746;7.072;2023-11-21T13:38:49;58.63;;;23.40;;
33716;SDS011;20046;50.746;7.072;2023-11-21T13:41:15;62.47;;;23.48;;
33716;SDS011;20046;50.746;7.072;2023-11-21T13:43:43;62.67;;;25.00;;
33716;SDS011;20046;50.746;7.072;2023-11-21T13:46:15;50.15;;;21.95;;
33716;SDS011;20046;50.746;7.072;2023-11-21T13:48:46;54.63;;;22.25;;
33716;SDS011;20046;50.746;7.072;2023-11-21T13:51:15;59.53;;;22.73;;
33716;SDS011;20046;50.746;7.072;2023-11-21T13:53:43;65.18;;;22.83;;
33716;SDS011;20046;50.746;7.072;2023-11-21T13:56:10;49.40;;;21.67;;
33716;SDS011;20046;50.746;7.072;2023-11-21T13:58:37;50.28;;;21.70;;
33716;SDS011;20046;50.746;7.072;2023-11-21T14:01:19;53.97;;;22.33;;
33716;SDS011;20046;50.746;7.072;2023-11-21T14:04:01;50.75;;;23.10;;
33716;SDS011;20046;50.746;7.072;2023-11-21T14:06:48;47.13;;;21.23;;
33716;SDS011;20046;50.746;7.072;2023-11-21T14:09:21;50.65;;;21.98;;
33716;SDS011;20046;50.746;7.072;2023-11-21T14:11:51;52.15;;;22.13;;
33716;SDS011;20046;50.746;7.072;2023-11-21T14:14:21;44.22;;;21.85;;
33716;SDS011;20046;50.746;7.072;2023-11-21T14:16:50;52.85;;;21.88;;
33716;SDS011;20046;50.746;7.072;2023-11-21T14:19:16;65.18;;;22.85;;
33716;SDS011;20046;50.746;7.072;2023-11-21T14:21:46;55.97;;;24.00;;
33716;SDS011;20046;50.746;7.072;2023-11-21T14:24:14;61.15;;;25.02;;
33716;SDS011;20046;50.746;7.072;2023-11-21T14:26:42;60.53;;;23.88;;
33716;SDS011;20046;50.746;7.072;2023-11-21T14:29:11;58.33;;;25.10;;
33716;SDS011;20046;50.746;7.072;2023-11-21T14:31:39;63.05;;;25.17;;
33716;SDS011;20046;50.746;7.072;2023-11-21T14:34:05;63.72;;;25.67;;
33716;SDS011;20046;50.746;7.072;2023-11-21T14:36:32;62.45;;;24.75;;
33716;SDS011;20046;50.746;7.072;2023-11-21T14:38:58;60.20;;;24.80;;
33716;SDS011;20046;50.746;7.072;2023-11-21T14:41:24;70.68;;;29.33;;